createdAt,value
2018-08-08T00:00:05.189Z,7.00
2018-08-08T00:02:33.764Z,7.50
2018-08-08T00:05:02.389Z,8.00
2018-08-08T00:07:30.971Z,7.13
2018-08-08T00:09:59.594Z,7.50
2018-08-08T00:12:28.339Z,7.60
2018-08-08T00:14:56.956Z,7.30
2018-08-08T00:17:25.527Z,7.57
2018-08-08T00:19:54.149Z,6.27
2018-08-08T00:22:22.968Z,6.47
2018-08-08T00:24:51.607Z,7.10
2018-08-08T00:27:20.104Z,6.97
2018-08-08T00:29:48.676Z,7.20
2018-08-08T00:32:17.361Z,6.90
2018-08-08T00:34:45.880Z,7.50
2018-08-08T00:37:14.405Z,7.57
2018-08-08T00:39:42.971Z,6.63
2018-08-08T00:42:11.579Z,8.10
2018-08-08T00:44:40.157Z,7.47
2018-08-08T00:47:08.768Z,7.00
2018-08-08T00:49:37.444Z,6.90
2018-08-08T00:52:06.855Z,6.33
2018-08-08T00:54:35.799Z,7.47
2018-08-08T00:57:04.918Z,6.30
2018-08-08T00:59:33.447Z,6.53
2018-08-08T01:02:03.004Z,6.63
2018-08-08T01:04:31.627Z,6.80
2018-08-08T01:07:00.194Z,7.03
2018-08-08T01:09:28.740Z,6.30
2018-08-08T01:11:57.327Z,6.50
2018-08-08T01:14:25.884Z,6.77
2018-08-08T01:16:54.424Z,6.10
2018-08-08T01:19:23.060Z,6.70
2018-08-08T01:21:51.648Z,6.27
2018-08-08T01:24:20.211Z,6.33
2018-08-08T01:26:48.803Z,7.13
2018-08-08T01:29:17.312Z,7.73
2018-08-08T01:31:45.860Z,7.00
2018-08-08T01:34:14.416Z,6.57
2018-08-08T01:36:43.026Z,6.73
2018-08-08T01:39:11.754Z,7.20
2018-08-08T01:41:40.449Z,6.57
2018-08-08T01:44:09.631Z,7.03
2018-08-08T01:46:38.277Z,7.50
2018-08-08T01:49:07.024Z,6.17
2018-08-08T01:51:35.609Z,7.20
2018-08-08T01:54:05.060Z,6.40
2018-08-08T01:56:33.604Z,7.47
2018-08-08T01:59:03.268Z,7.03
2018-08-08T02:01:31.840Z,6.83
2018-08-08T02:04:00.567Z,6.50
2018-08-08T02:06:29.152Z,6.40
2018-08-08T02:08:57.763Z,6.60
2018-08-08T02:11:26.387Z,7.00
2018-08-08T02:13:54.944Z,6.43
2018-08-08T02:16:23.627Z,6.30
2018-08-08T02:18:52.324Z,7.33
2018-08-08T02:21:21.967Z,6.80
2018-08-08T02:23:50.994Z,7.83
2018-08-08T02:26:19.559Z,6.83
2018-08-08T02:28:48.983Z,6.90
2018-08-08T02:31:17.548Z,7.50
2018-08-08T02:33:46.101Z,7.33
2018-08-08T02:36:14.924Z,6.73
2018-08-08T02:38:43.464Z,6.00
2018-08-08T02:41:11.995Z,6.90
2018-08-08T02:43:40.585Z,6.77
2018-08-08T02:46:09.203Z,6.80
2018-08-08T02:48:37.734Z,7.07
2018-08-08T02:51:06.317Z,6.63
2018-08-08T02:53:34.913Z,7.40
2018-08-08T02:56:03.600Z,6.20
2018-08-08T02:58:32.106Z,6.77
2018-08-08T03:01:00.732Z,5.80
2018-08-08T03:03:29.329Z,6.37
2018-08-08T03:05:57.899Z,6.17
2018-08-08T03:08:26.700Z,6.33
2018-08-08T03:10:55.240Z,6.73
2018-08-08T03:13:23.889Z,6.80
2018-08-08T03:15:52.519Z,6.50
2018-08-08T03:18:21.127Z,6.50
2018-08-08T03:20:49.796Z,6.90
2018-08-08T03:23:18.485Z,6.73
2018-08-08T03:25:47.087Z,5.50
2018-08-08T03:28:16.298Z,6.67
2018-08-08T03:30:44.877Z,6.70
2018-08-08T03:33:13.444Z,6.50
2018-08-08T03:35:42.012Z,7.73
2018-08-08T03:38:10.707Z,7.50
2018-08-08T03:40:39.359Z,6.63
2018-08-08T03:43:08.089Z,6.33
2018-08-08T03:45:36.651Z,7.10
2018-08-08T03:48:05.517Z,6.60
2018-08-08T03:50:34.136Z,6.80
2018-08-08T03:53:02.916Z,6.30
2018-08-08T03:55:31.484Z,6.00
2018-08-08T03:58:00.042Z,6.07
2018-08-08T04:00:28.624Z,7.00
2018-08-08T04:02:57.256Z,6.70
2018-08-08T04:05:25.876Z,7.47
2018-08-08T04:07:54.443Z,8.30
2018-08-08T04:10:23.004Z,7.57
2018-08-08T04:12:51.587Z,9.43
2018-08-08T04:15:20.394Z,7.43
2018-08-08T04:17:48.967Z,7.00
2018-08-08T04:20:17.553Z,6.63
2018-08-08T04:22:46.704Z,7.10
2018-08-08T04:25:15.977Z,7.40
2018-08-08T04:27:44.964Z,7.57
2018-08-08T04:30:17.910Z,6.80
2018-08-08T04:32:46.598Z,7.33
2018-08-08T04:35:15.250Z,7.40
2018-08-08T04:37:44.263Z,6.90
2018-08-08T04:40:14.952Z,8.10
2018-08-08T04:42:44.875Z,7.40
2018-08-08T04:45:13.975Z,6.73
2018-08-08T04:47:43.459Z,7.23
2018-08-08T04:50:12.432Z,7.60
2018-08-08T04:52:41.382Z,7.93
2018-08-08T04:55:11.804Z,6.57
2018-08-08T04:57:41.112Z,7.87
2018-08-08T05:00:11.768Z,8.00
2018-08-08T05:02:40.467Z,8.07
2018-08-08T05:05:10.191Z,8.30
2018-08-08T05:07:39.065Z,7.77
2018-08-08T05:10:10.032Z,7.90
2018-08-08T05:12:39.509Z,7.07
2018-08-08T05:15:10.123Z,6.90
2018-08-08T05:17:38.707Z,7.73
2018-08-08T05:20:08.515Z,7.50
2018-08-08T05:22:37.184Z,6.60
2018-08-08T05:25:06.016Z,7.70
2018-08-08T05:27:34.657Z,6.97
2018-08-08T05:30:04.068Z,6.30
2018-08-08T05:32:32.639Z,7.60
2018-08-08T05:35:01.276Z,7.50
2018-08-08T05:37:29.999Z,6.93
2018-08-08T05:39:58.512Z,8.67
2018-08-08T05:42:27.092Z,7.37
2018-08-08T05:44:55.828Z,6.93
2018-08-08T05:47:24.518Z,7.37
2018-08-08T05:49:53.083Z,7.13
2018-08-08T05:52:22.641Z,6.03
2018-08-08T05:54:51.241Z,7.77
2018-08-08T05:57:19.819Z,6.17
2018-08-08T05:59:48.520Z,6.70
2018-08-08T06:02:17.181Z,6.30
2018-08-08T06:04:45.770Z,5.80
2018-08-08T06:07:14.358Z,6.10
2018-08-08T06:09:42.928Z,7.23
2018-08-08T06:12:11.483Z,5.80
2018-08-08T06:14:40.072Z,6.17
2018-08-08T06:17:08.880Z,6.77
2018-08-08T06:19:37.552Z,6.20
2018-08-08T06:22:07.383Z,5.90
2018-08-08T06:24:36.139Z,5.60
2018-08-08T06:27:04.876Z,5.33
2018-08-08T06:29:33.452Z,6.37
2018-08-08T06:32:02.161Z,5.30
2018-08-08T06:34:30.894Z,5.17
2018-08-08T06:37:00.878Z,5.50
2018-08-08T06:39:29.850Z,6.03
2018-08-08T06:41:58.503Z,4.83
2018-08-08T06:44:27.305Z,5.47
2018-08-08T06:46:55.988Z,7.63
2018-08-08T06:49:24.621Z,5.73
2018-08-08T06:51:53.398Z,6.47
2018-08-08T06:54:22.085Z,4.67
2018-08-08T06:56:50.974Z,5.20
2018-08-08T06:59:19.843Z,5.17
2018-08-08T07:01:49.001Z,5.60
2018-08-08T07:04:17.691Z,4.63
2018-08-08T07:06:46.219Z,5.17
2018-08-08T07:09:15.085Z,4.50
2018-08-08T07:11:43.709Z,5.50
2018-08-08T07:14:12.402Z,4.90
2018-08-08T07:16:41.002Z,4.80
2018-08-08T07:19:09.625Z,4.83
2018-08-08T07:21:38.323Z,5.23
2018-08-08T07:24:07.207Z,4.80
2018-08-08T07:26:35.824Z,4.73
2018-08-08T07:29:04.421Z,6.00
2018-08-08T07:31:33.093Z,7.37
2018-08-08T07:34:01.818Z,5.90
2018-08-08T07:36:30.416Z,6.27
2018-08-08T07:38:58.971Z,5.30
2018-08-08T07:41:27.548Z,5.50
2018-08-08T07:43:56.107Z,4.77
2018-08-08T07:46:24.725Z,5.03
2018-08-08T07:48:53.248Z,5.33
2018-08-08T07:51:21.808Z,5.00
2018-08-08T07:53:50.391Z,5.60
2018-08-08T07:56:19.164Z,6.43
2018-08-08T07:58:47.796Z,5.30
2018-08-08T08:01:16.460Z,6.10
2018-08-08T08:03:44.990Z,6.17
2018-08-08T08:06:13.709Z,5.60
2018-08-08T08:08:42.299Z,6.27
2018-08-08T08:11:11.040Z,5.80
2018-08-08T08:13:40.632Z,6.23
2018-08-08T08:16:09.705Z,6.33
2018-08-08T08:18:38.226Z,5.37
2018-08-08T08:21:07.128Z,5.07
2018-08-08T08:23:35.682Z,5.33
2018-08-08T08:26:04.363Z,5.20
2018-08-08T08:28:32.895Z,5.50
2018-08-08T08:31:01.534Z,5.83
2018-08-08T08:33:30.498Z,5.43
2018-08-08T08:35:59.142Z,5.03
2018-08-08T08:38:28.398Z,6.50
2018-08-08T08:40:57.155Z,4.90
2018-08-08T08:43:25.777Z,6.23
2018-08-08T08:45:54.581Z,5.63
2018-08-08T08:48:23.200Z,5.60
2018-08-08T08:50:51.779Z,7.37
2018-08-08T08:53:20.336Z,8.87
2018-08-08T08:55:49.130Z,8.40
2018-08-08T08:58:18.385Z,6.77
2018-08-08T09:00:47.168Z,7.90
2018-08-08T09:03:15.753Z,8.00
2018-08-08T09:05:44.421Z,7.37
2018-08-08T09:08:12.979Z,7.60
2018-08-08T09:10:41.524Z,7.70
2018-08-08T09:13:10.794Z,8.73
2018-08-08T09:15:39.399Z,7.83
2018-08-08T09:18:07.944Z,8.47
2018-08-08T09:20:36.590Z,8.53
2018-08-08T09:23:05.264Z,8.07
2018-08-08T09:25:33.815Z,10.10
2018-08-08T09:28:02.332Z,9.00
2018-08-08T09:30:31.000Z,8.80
2018-08-08T09:33:04.756Z,10.50
2018-08-08T09:35:33.394Z,10.07
2018-08-08T09:38:02.114Z,8.70
2018-08-08T09:40:31.207Z,9.90
2018-08-08T09:42:59.771Z,11.10
2018-08-08T09:45:28.425Z,9.77
2018-08-08T09:47:57.011Z,12.13
2018-08-08T09:50:25.582Z,11.70
2018-08-08T09:52:54.205Z,11.77
2018-08-08T09:55:22.899Z,11.70
2018-08-08T09:57:51.554Z,11.63
2018-08-08T10:00:29.367Z,12.30
2018-08-08T10:03:03.266Z,11.90
2018-08-08T10:05:31.967Z,10.77
2018-08-08T10:08:00.595Z,12.43
2018-08-08T10:10:29.174Z,12.00
2018-08-08T10:12:57.883Z,10.83
2018-08-08T10:15:26.447Z,11.87
2018-08-08T10:17:55.389Z,11.70
2018-08-08T10:20:24.031Z,10.30
2018-08-08T10:22:52.676Z,11.27
2018-08-08T10:25:21.253Z,11.50
2018-08-08T10:27:49.887Z,10.90
2018-08-08T10:30:18.527Z,11.30
2018-08-08T10:32:47.072Z,12.90
2018-08-08T10:35:15.635Z,12.77
2018-08-08T10:37:44.246Z,11.73
2018-08-08T10:40:13.186Z,12.23
2018-08-08T10:42:41.849Z,12.20
2018-08-08T10:45:10.681Z,11.87
2018-08-08T10:47:39.341Z,11.37
2018-08-08T10:50:08.033Z,12.03
2018-08-08T10:52:36.931Z,10.17
2018-08-08T10:55:07.027Z,10.27
2018-08-08T10:57:35.711Z,9.93
2018-08-08T11:00:05.660Z,9.20
2018-08-08T11:02:34.449Z,9.70
2018-08-08T11:05:03.068Z,10.50
2018-08-08T11:07:31.713Z,9.83
2018-08-08T11:10:00.259Z,9.93
2018-08-08T11:12:29.121Z,9.50
2018-08-08T11:14:57.693Z,9.40
2018-08-08T11:17:26.328Z,10.10
2018-08-08T11:19:55.179Z,9.00
2018-08-08T11:22:23.890Z,9.10
2018-08-08T11:24:52.465Z,8.93
2018-08-08T11:27:21.070Z,9.30
2018-08-08T11:29:49.716Z,10.33
2018-08-08T11:32:18.336Z,8.10
2018-08-08T11:34:46.980Z,8.80
2018-08-08T11:37:15.584Z,9.27
2018-08-08T11:39:44.704Z,10.87
2018-08-08T11:42:13.364Z,9.50
2018-08-08T11:44:41.920Z,8.90
2018-08-08T11:47:10.668Z,8.17
2018-08-08T11:49:39.223Z,7.53
2018-08-08T11:52:07.949Z,7.90
2018-08-08T11:54:36.453Z,6.73
2018-08-08T11:57:05.319Z,7.00
2018-08-08T11:59:33.935Z,6.30
2018-08-08T12:02:02.567Z,6.87
2018-08-08T12:04:31.105Z,6.20
2018-08-08T12:06:59.678Z,6.90
2018-08-08T12:09:28.285Z,6.10
2018-08-08T12:11:56.875Z,7.10
2018-08-08T12:14:25.494Z,6.97
2018-08-08T12:16:54.138Z,7.00
2018-08-08T12:19:22.856Z,6.53
2018-08-08T12:21:51.444Z,6.47
2018-08-08T12:24:20.069Z,6.83
2018-08-08T12:26:48.608Z,6.93
2018-08-08T12:29:17.375Z,5.77
2018-08-08T12:31:47.069Z,5.63
2018-08-08T12:34:15.760Z,6.87
2018-08-08T12:36:44.392Z,6.60
2018-08-08T12:39:13.125Z,6.37
2018-08-08T12:41:41.716Z,6.53
2018-08-08T12:44:10.334Z,7.47
2018-08-08T12:46:38.919Z,7.80
2018-08-08T12:49:07.635Z,6.47
2018-08-08T12:51:36.260Z,7.17
2018-08-08T12:54:04.874Z,6.17
2018-08-08T12:56:33.436Z,6.07
2018-08-08T12:59:01.997Z,5.33
2018-08-08T13:01:31.203Z,5.73
2018-08-08T13:03:59.751Z,6.80
2018-08-08T13:06:28.341Z,5.00
2018-08-08T13:08:56.934Z,5.13
2018-08-08T13:11:25.598Z,5.77
2018-08-08T13:13:54.201Z,5.00
2018-08-08T13:16:23.069Z,5.90
2018-08-08T13:18:51.544Z,5.57
2018-08-08T13:21:20.246Z,7.40
2018-08-08T13:23:48.926Z,5.27
2018-08-08T13:26:17.580Z,5.20
2018-08-08T13:28:46.608Z,6.10
2018-08-08T13:31:15.434Z,5.40
2018-08-08T13:33:43.941Z,5.00
2018-08-08T13:36:13.633Z,5.83
2018-08-08T13:38:42.206Z,4.90
2018-08-08T13:41:11.002Z,5.10
2018-08-08T13:43:40.306Z,5.77
2018-08-08T13:46:09.005Z,6.67
2018-08-08T13:48:37.791Z,5.83
2018-08-08T13:51:06.356Z,5.40
2018-08-08T13:53:35.167Z,5.23
2018-08-08T13:56:03.880Z,5.40
2018-08-08T13:58:32.497Z,7.07
2018-08-08T14:01:01.239Z,4.97
2018-08-08T14:03:29.842Z,5.30
2018-08-08T14:05:58.411Z,4.70
2018-08-08T14:08:27.209Z,5.30
2018-08-08T14:10:56.860Z,5.57
2018-08-08T14:13:25.652Z,6.03
2018-08-08T14:15:54.461Z,6.03
2018-08-08T14:18:23.051Z,6.10
2018-08-08T14:20:51.637Z,6.00
2018-08-08T14:23:20.928Z,6.30
2018-08-08T14:25:50.557Z,6.00
2018-08-08T14:28:19.087Z,6.57
2018-08-08T14:30:47.632Z,5.90
2018-08-08T14:33:16.347Z,6.27
2018-08-08T14:35:45.258Z,5.93
2018-08-08T14:38:13.877Z,5.33
2018-08-08T14:40:42.507Z,4.97
2018-08-08T14:43:11.063Z,5.10
2018-08-08T14:45:39.884Z,6.40
2018-08-08T14:48:08.686Z,5.10
2018-08-08T14:50:37.555Z,5.83
2018-08-08T14:53:06.258Z,6.30
2018-08-08T14:55:34.897Z,5.33
2018-08-08T14:58:03.592Z,5.47
2018-08-08T15:00:32.386Z,6.40
2018-08-08T15:03:01.049Z,5.43
2018-08-08T15:05:29.780Z,6.23
2018-08-08T15:07:58.486Z,6.37
2018-08-08T15:10:27.141Z,6.60
2018-08-08T15:12:55.795Z,5.87
2018-08-08T15:15:24.476Z,6.87
2018-08-08T15:17:53.272Z,5.50
2018-08-08T15:20:22.212Z,5.20
2018-08-08T15:22:50.854Z,5.23
2018-08-08T15:25:19.489Z,5.47
2018-08-08T15:27:48.117Z,5.00
2018-08-08T15:30:16.775Z,5.10
2018-08-08T15:32:45.353Z,5.37
2018-08-08T15:35:14.012Z,5.33
2018-08-08T15:37:43.623Z,5.23
2018-08-08T15:40:11.981Z,4.90
2018-08-08T15:42:40.664Z,5.33
2018-08-08T15:45:10.730Z,4.40
2018-08-08T15:47:39.399Z,4.90
2018-08-08T15:50:10.159Z,5.20
2018-08-08T15:52:39.329Z,4.20
2018-08-08T15:55:09.310Z,4.70
2018-08-08T15:57:38.136Z,5.53
2018-08-08T16:00:09.326Z,5.10
2018-08-08T16:02:37.943Z,6.10
2018-08-08T16:05:06.901Z,5.53
2018-08-08T16:07:35.995Z,4.33
2018-08-08T16:10:05.732Z,5.30
2018-08-08T16:12:34.485Z,5.13
2018-08-08T16:15:03.109Z,4.33
2018-08-08T16:17:31.964Z,4.37
2018-08-08T16:20:00.604Z,4.90
2018-08-08T16:22:29.151Z,4.97
2018-08-08T16:24:57.796Z,5.10
2018-08-08T16:27:27.458Z,4.00
2018-08-08T16:29:56.017Z,4.67
2018-08-08T16:32:24.839Z,4.50
2018-08-08T16:34:53.938Z,5.37
2018-08-08T16:37:22.570Z,4.17
2018-08-08T16:39:51.227Z,4.10
2018-08-08T16:42:20.934Z,4.60
2018-08-08T16:44:49.515Z,3.90
2018-08-08T16:47:18.059Z,4.10
2018-08-08T16:49:46.668Z,3.50
2018-08-08T16:52:15.303Z,3.70
2018-08-08T16:55:46.954Z,4.47
2018-08-08T16:58:15.505Z,4.20
2018-08-08T17:00:44.263Z,4.33
2018-08-08T17:03:12.916Z,4.50
2018-08-08T17:05:41.440Z,4.00
2018-08-08T17:08:10.144Z,4.07
2018-08-08T17:10:38.718Z,4.40
2018-08-08T17:13:07.336Z,4.77
2018-08-08T17:15:35.900Z,4.10
2018-08-08T17:18:04.698Z,3.87
2018-08-08T17:20:33.346Z,3.77
2018-08-08T17:23:01.920Z,3.87
2018-08-08T17:25:30.483Z,4.30
2018-08-08T17:27:59.086Z,4.20
2018-08-08T17:30:27.759Z,4.37
2018-08-08T17:32:56.358Z,4.30
2018-08-08T17:35:24.985Z,3.63
2018-08-08T17:37:53.655Z,3.63
2018-08-08T17:40:22.521Z,4.57
2018-08-08T17:42:51.319Z,4.90
2018-08-08T17:45:20.252Z,3.97
2018-08-08T17:47:48.967Z,4.37
2018-08-08T17:50:17.790Z,3.90
2018-08-08T17:52:46.258Z,3.70
2018-08-08T17:55:14.851Z,3.97
2018-08-08T17:57:43.486Z,4.03
2018-08-08T18:00:12.084Z,3.17
2018-08-08T18:02:40.793Z,3.40
2018-08-08T18:05:09.488Z,3.57
2018-08-08T18:07:38.977Z,3.37
2018-08-08T18:10:08.516Z,3.33
2018-08-08T18:12:37.316Z,3.17
2018-08-08T18:15:07.340Z,3.43
2018-08-08T18:17:35.959Z,3.07
2018-08-08T18:20:05.231Z,2.83
2018-08-08T18:22:34.666Z,3.03
2018-08-08T18:25:03.217Z,3.53
2018-08-08T18:27:31.792Z,2.90
2018-08-08T18:30:02.769Z,3.03
2018-08-08T18:32:31.501Z,3.53
2018-08-08T18:35:00.135Z,2.73
2018-08-08T18:37:28.706Z,3.47
2018-08-08T18:39:57.246Z,3.43
2018-08-08T18:42:25.845Z,3.20
2018-08-08T18:44:55.145Z,3.30
2018-08-08T18:47:23.727Z,3.20
2018-08-08T18:49:52.361Z,3.60
2018-08-08T18:52:21.094Z,3.03
2018-08-08T18:54:49.672Z,3.17
2018-08-08T18:57:18.840Z,2.70
2018-08-08T18:59:48.039Z,3.40
2018-08-08T19:02:17.441Z,2.90
2018-08-08T19:04:46.092Z,2.50
2018-08-08T19:07:14.764Z,2.57
2018-08-08T19:09:43.335Z,3.13
2018-08-08T19:12:11.931Z,3.27
2018-08-08T19:14:40.587Z,2.60
2018-08-08T19:17:09.179Z,2.73
2018-08-08T19:19:37.906Z,3.10
2018-08-08T19:22:06.567Z,2.70
2018-08-08T19:24:35.218Z,2.50
2018-08-08T19:27:04.013Z,2.90
2018-08-08T19:29:32.687Z,2.87
2018-08-08T19:32:01.246Z,3.07
2018-08-08T19:34:29.871Z,2.50
2018-08-08T19:36:58.723Z,3.17
2018-08-08T19:39:27.207Z,2.60
2018-08-08T19:41:55.874Z,2.60
2018-08-08T19:44:24.583Z,2.93
2018-08-08T19:46:53.267Z,2.43
2018-08-08T19:49:21.858Z,2.40
2018-08-08T19:51:50.864Z,2.90
2018-08-08T19:54:19.552Z,2.60
2018-08-08T19:56:48.500Z,3.43
2018-08-08T19:59:17.052Z,2.80
2018-08-08T20:01:45.690Z,2.23
2018-08-08T20:04:14.228Z,3.07
2018-08-08T20:06:42.804Z,3.27
2018-08-08T20:09:12.811Z,3.20
2018-08-08T20:11:41.933Z,3.13
2018-08-08T20:14:10.567Z,3.07
2018-08-08T20:16:39.596Z,3.37
2018-08-08T20:19:08.178Z,3.30
2018-08-08T20:21:36.805Z,3.60
2018-08-08T20:24:05.373Z,3.60
2018-08-08T20:26:34.655Z,3.20
2018-08-08T20:29:03.775Z,3.33
2018-08-08T20:31:32.362Z,3.43
2018-08-08T20:34:01.698Z,2.90
2018-08-08T20:36:30.311Z,3.47
2018-08-08T20:38:58.924Z,3.27
2018-08-08T20:41:27.681Z,2.70
2018-08-08T20:43:56.264Z,3.83
2018-08-08T20:46:24.800Z,3.10
2018-08-08T20:48:53.480Z,3.13
2018-08-08T20:51:22.227Z,3.23
2018-08-08T20:53:51.176Z,2.90
2018-08-08T20:56:19.712Z,3.27
2018-08-08T20:58:48.313Z,3.80
2018-08-08T21:01:16.900Z,3.00
2018-08-08T21:03:45.580Z,3.60
2018-08-08T21:06:14.291Z,3.20
2018-08-08T21:08:42.851Z,2.73
2018-08-08T21:11:12.407Z,2.90
2018-08-08T21:13:41.699Z,2.70
2018-08-08T21:16:10.417Z,3.00
2018-08-08T21:18:39.038Z,3.07
2018-08-08T21:21:07.781Z,3.67
2018-08-08T21:23:36.477Z,3.40
2018-08-08T21:26:05.103Z,3.53
2018-08-08T21:28:33.666Z,2.87
2018-08-08T21:31:02.674Z,3.03
2018-08-08T21:33:31.260Z,3.20
2018-08-08T21:35:59.826Z,3.57
2018-08-08T21:38:28.435Z,2.90
2018-08-08T21:40:57.010Z,3.07
2018-08-08T21:43:25.679Z,3.17
2018-08-08T21:45:54.473Z,3.10
2018-08-08T21:48:23.273Z,3.70
2018-08-08T21:50:52.054Z,2.63
2018-08-08T21:53:31.325Z,2.80
2018-08-08T21:56:11.369Z,3.30
2018-08-08T21:58:51.366Z,2.93
2018-08-08T22:01:31.168Z,2.83
2018-08-08T22:04:10.864Z,2.63
2018-08-08T22:06:50.798Z,3.13
2018-08-08T22:09:30.815Z,2.87
2018-08-08T22:12:11.527Z,3.30
2018-08-08T22:14:51.423Z,3.33
2018-08-08T22:17:31.183Z,3.90
2018-08-08T22:19:59.846Z,3.60
2018-08-08T22:22:28.409Z,2.97
2018-08-08T22:24:56.933Z,2.67
2018-08-08T22:27:26.482Z,2.73
2018-08-08T22:29:55.244Z,2.80
2018-08-08T22:32:23.967Z,2.73
2018-08-08T22:34:52.677Z,3.67
2018-08-08T22:37:21.329Z,3.03
2018-08-08T22:39:51.123Z,3.30
2018-08-08T22:42:19.920Z,3.23
2018-08-08T22:44:48.521Z,3.43
2018-08-08T22:47:17.268Z,2.70
2018-08-08T22:49:45.911Z,3.37
2018-08-08T22:52:14.568Z,3.63
2018-08-08T22:54:43.155Z,3.20
2018-08-08T22:57:11.708Z,2.73
2018-08-08T22:59:40.948Z,3.63
2018-08-08T23:02:09.585Z,3.23
2018-08-08T23:04:38.292Z,2.90
2018-08-08T23:07:06.966Z,3.23
2018-08-08T23:09:35.778Z,2.90
2018-08-08T23:12:04.468Z,3.13
2018-08-08T23:14:33.083Z,3.17
2018-08-08T23:17:01.648Z,2.80
2018-08-08T23:19:30.431Z,2.50
2018-08-08T23:21:59.075Z,2.67
2018-08-08T23:24:27.709Z,3.30
2018-08-08T23:26:56.387Z,2.40
2018-08-08T23:29:25.067Z,2.80
2018-08-08T23:31:53.806Z,2.63
2018-08-08T23:34:22.452Z,2.37
2018-08-08T23:36:51.128Z,2.80
2018-08-08T23:39:19.871Z,3.30
2018-08-08T23:41:48.539Z,2.80
2018-08-08T23:44:17.208Z,2.77
2018-08-08T23:46:46.155Z,2.90
2018-08-08T23:49:14.754Z,2.30
2018-08-08T23:51:43.407Z,2.53
2018-08-08T23:54:12.036Z,2.83
2018-08-08T23:56:40.591Z,3.27
2018-08-08T23:59:09.190Z,3.10
